Time;durP1;ratioP1;P1;durP2;ratioP2;P2;SDS_P1;SDS_P2;PMS_P1;PMS_P2;Temp;Humidity;BMP_temperature;BMP_pressure;BME280_temperature;BME280_humidity;BME280_pressure;Samples;Min_cycle;Max_cycle;Signal;HPM_P1;HPM_P2
2023/09/18 00:00:51;;;;;;;12.75;8.18;;;21.50;99.90;;;;;;4869174;29;20081;-82
2023/09/18 00:03:20;;;;;;;12.20;7.90;;;21.40;99.90;;;;;;4855716;29;20049;-80
2023/09/18 00:05:48;;;;;;;11.85;7.97;;;21.50;99.90;;;;;;4858149;29;20093;-81
2023/09/18 00:08:21;;;;;;;11.75;8.02;;;21.50;99.90;;;;;;4873260;29;20041;-85
2023/09/18 00:10:52;;;;;;;12.57;7.63;;;21.40;99.90;;;;;;4861699;29;20037;-83
2023/09/18 00:13:21;;;;;;;11.23;7.72;;;21.40;99.90;;;;;;4855044;29;20042;-83
2023/09/18 00:15:48;;;;;;;10.65;7.85;;;21.40;99.90;;;;;;4873496;29;20516;-81
2023/09/18 00:18:16;;;;;;;12.20;7.50;;;21.50;99.90;;;;;;4856074;29;20115;-81
2023/09/18 00:20:46;;;;;;;14.55;8.55;;;21.50;99.90;;;;;;4855427;29;20049;-82
2023/09/18 00:23:13;;;;;;;11.00;7.75;;;21.40;99.90;;;;;;4869669;29;20292;-81
2023/09/18 00:25:42;;;;;;;10.80;8.07;;;21.40;99.90;;;;;;4857633;29;20109;-81
2023/09/18 00:28:09;;;;;;;13.73;8.60;;;21.30;99.90;;;;;;4864517;29;20385;-80
2023/09/18 00:30:42;;;;;;;12.40;7.38;;;21.40;99.90;;;;;;4865397;29;20136;-82
2023/09/18 00:33:09;;;;;;;11.88;7.93;;;21.20;99.90;;;;;;4864041;29;20490;-83
2023/09/18 00:35:37;;;;;;;12.18;8.35;;;21.20;99.90;;;;;;4855436;29;20061;-82
2023/09/18 00:38:06;;;;;;;11.63;8.50;;;21.30;99.90;;;;;;4853665;29;20415;-83
2023/09/18 00:40:33;;;;;;;13.68;8.55;;;21.30;99.90;;;;;;4871393;29;20378;-85
2023/09/18 00:43:00;;;;;;;13.25;7.90;;;21.30;99.90;;;;;;4846306;29;20521;-85
2023/09/18 00:45:28;;;;;;;13.77;7.82;;;21.30;99.90;;;;;;4870356;29;20087;-83
2023/09/18 00:47:55;;;;;;;13.73;8.18;;;21.30;99.90;;;;;;4853873;29;20462;-82
2023/09/18 00:50:23;;;;;;;12.07;7.97;;;21.30;99.90;;;;;;4858100;29;20034;-82
2023/09/18 00:52:50;;;;;;;13.05;8.68;;;21.30;99.90;;;;;;4869331;29;21165;-82
2023/09/18 00:55:18;;;;;;;18.58;8.68;;;21.30;99.90;;;;;;4871649;29;20057;-83
2023/09/18 00:57:45;;;;;;;13.45;8.13;;;21.20;99.90;;;;;;4856754;29;20490;-84
2023/09/18 01:00:17;;;;;;;14.02;8.65;;;21.20;99.90;;;;;;4872128;29;20386;-84
2023/09/18 01:02:45;;;;;;;11.60;8.38;;;21.20;99.90;;;;;;4867536;29;20395;-83
2023/09/18 01:05:14;;;;;;;10.52;7.65;;;21.20;99.90;;;;;;4857787;29;20120;-82
2023/09/18 01:07:41;;;;;;;13.77;8.75;;;21.30;99.90;;;;;;4868779;29;20050;-81
2023/09/18 01:10:09;;;;;;;14.10;8.30;;;21.20;99.90;;;;;;4852135;29;20030;-82
2023/09/18 01:12:46;;;;;;;15.00;8.40;;;21.20;99.90;;;;;;4872239;29;20121;-83
2023/09/18 01:15:29;;;;;;;13.52;8.38;;;21.30;99.90;;;;;;4870357;29;20049;-83
2023/09/18 01:17:56;;;;;;;10.70;7.70;;;21.30;99.90;;;;;;4857659;29;20516;-83
2023/09/18 01:20:24;;;;;;;15.52;8.73;;;21.20;99.90;;;;;;4871778;29;20034;-81
2023/09/18 01:22:51;;;;;;;10.85;8.57;;;21.00;99.90;;;;;;4851911;29;20037;-81
2023/09/18 01:25:18;;;;;;;13.13;8.15;;;20.90;99.90;;;;;;4871825;29;20048;-83
2023/09/18 01:27:45;;;;;;;12.40;9.05;;;20.90;99.90;;;;;;4869348;29;20041;-83
2023/09/18 01:30:13;;;;;;;15.90;8.77;;;20.90;99.90;;;;;;4857898;29;20045;-79
2023/09/18 01:32:41;;;;;;;13.85;8.70;;;20.90;99.90;;;;;;4870755;29;20128;-81
2023/09/18 01:35:10;;;;;;;15.00;9.25;;;20.80;99.90;;;;;;4857148;29;20026;-83
2023/09/18 01:37:38;;;;;;;14.73;8.50;;;20.70;99.90;;;;;;4869884;29;20046;-78
2023/09/18 01:40:07;;;;;;;13.73;8.38;;;20.70;99.90;;;;;;4856467;29;20038;-78
2023/09/18 01:42:35;;;;;;;15.02;8.90;;;20.70;99.90;;;;;;4870801;29;20037;-81
2023/09/18 01:45:05;;;;;;;13.48;9.05;;;20.80;99.90;;;;;;4857037;29;20121;-79
2023/09/18 01:47:32;;;;;;;18.40;9.47;;;21.00;99.90;;;;;;4855594;29;20519;-81
2023/09/18 01:50:05;;;;;;;13.18;8.10;;;21.10;99.90;;;;;;4872564;29;20092;-81
2023/09/18 01:52:34;;;;;;;14.00;8.57;;;21.00;99.90;;;;;;4874408;29;20128;-81
2023/09/18 01:55:04;;;;;;;15.15;9.18;;;20.80;99.90;;;;;;4851788;29;20042;-82
2023/09/18 01:57:31;;;;;;;14.70;9.20;;;20.80;99.90;;;;;;4869384;29;20049;-82
2023/09/18 01:59:58;;;;;;;15.82;8.63;;;20.70;99.90;;;;;;4858250;29;20045;-80
2023/09/18 02:02:27;;;;;;;13.00;8.70;;;20.50;99.90;;;;;;4872712;29;20118;-81
2023/09/18 02:05:04;;;;;;;14.48;8.95;;;20.60;99.90;;;;;;4856394;29;20033;-81
2023/09/18 02:07:36;;;;;;;14.70;9.07;;;20.60;99.90;;;;;;4874260;29;20470;-82
2023/09/18 02:10:04;;;;;;;10.25;8.40;;;20.70;99.90;;;;;;4855463;29;20072;-83
2023/09/18 02:12:31;;;;;;;12.93;8.27;;;20.60;99.90;;;;;;4858668;29;20691;-81
2023/09/18 02:15:04;;;;;;;13.38;8.40;;;20.40;99.90;;;;;;4868340;29;20037;-83
2023/09/18 02:17:31;;;;;;;13.35;8.38;;;20.10;99.90;;;;;;4874540;29;20049;-81
2023/09/18 02:20:00;;;;;;;19.73;8.40;;;20.10;99.90;;;;;;4873065;29;20106;-79
2023/09/18 02:22:28;;;;;;;15.98;8.45;;;20.30;99.90;;;;;;4855218;29;20541;-81
2023/09/18 02:24:55;;;;;;;13.23;8.60;;;20.30;99.90;;;;;;4856930;29;20076;-78
2023/09/18 02:27:22;;;;;;;12.48;8.40;;;20.30;99.90;;;;;;4854829;29;20128;-79
2023/09/18 02:29:50;;;;;;;13.00;8.13;;;20.40;99.90;;;;;;4856190;29;20132;-78
2023/09/18 02:32:17;;;;;;;13.93;8.40;;;20.30;99.90;;;;;;4852310;29;20481;-82
2023/09/18 02:34:45;;;;;;;12.27;8.90;;;20.30;99.90;;;;;;4870261;29;20038;-82
2023/09/18 02:37:12;;;;;;;11.63;8.20;;;20.20;99.90;;;;;;4867957;29;20069;-83
2023/09/18 02:39:40;;;;;;;12.10;8.52;;;20.30;99.90;;;;;;4852808;29;20642;-81
2023/09/18 02:42:08;;;;;;;15.43;8.48;;;20.20;99.90;;;;;;4869889;29;20041;-79
2023/09/18 02:44:35;;;;;;;12.50;8.52;;;20.10;99.90;;;;;;4873667;29;20050;-81
2023/09/18 02:47:02;;;;;;;14.20;8.60;;;20.20;99.90;;;;;;4857880;29;20430;-80
2023/09/18 02:49:30;;;;;;;11.73;8.70;;;20.20;99.90;;;;;;4851985;29;20049;-80
2023/09/18 02:51:57;;;;;;;13.25;8.98;;;20.00;99.90;;;;;;4857940;29;20041;-83
2023/09/18 02:54:24;;;;;;;12.60;8.55;;;20.00;99.90;;;;;;4854661;29;20597;-79
2023/09/18 02:56:51;;;;;;;12.57;9.02;;;20.00;99.90;;;;;;4854696;29;20040;-80
2023/09/18 02:59:18;;;;;;;13.57;8.60;;;20.00;99.90;;;;;;4854684;29;20061;-80
2023/09/18 03:01:45;;;;;;;13.95;8.65;;;20.00;99.90;;;;;;4857253;29;20461;-80
2023/09/18 03:04:13;;;;;;;13.70;9.43;;;20.10;99.90;;;;;;4852157;29;20121;-80
2023/09/18 03:06:41;;;;;;;14.43;9.23;;;20.20;99.90;;;;;;4857729;29;20061;-80
2023/09/18 03:09:08;;;;;;;13.13;8.65;;;20.10;99.90;;;;;;4853679;29;20418;-79
2023/09/18 03:11:35;;;;;;;13.65;8.98;;;20.00;99.90;;;;;;4857131;29;20143;-79
2023/09/18 03:14:03;;;;;;;14.07;9.23;;;19.90;99.90;;;;;;4855740;29;20044;-80
2023/09/18 03:16:33;;;;;;;13.90;8.60;;;19.90;99.90;;;;;;4852279;29;20050;-79
2023/09/18 03:19:00;;;;;;;12.10;7.95;;;19.90;99.90;;;;;;4858069;29;20112;-80
2023/09/18 03:21:27;;;;;;;12.48;8.52;;;20.00;99.90;;;;;;4857135;29;20040;-79
2023/09/18 03:23:54;;;;;;;12.30;8.90;;;19.90;99.90;;;;;;4854789;29;20048;-80
2023/09/18 03:26:22;;;;;;;12.25;9.02;;;19.90;99.90;;;;;;4850112;29;20410;-80
2023/09/18 03:28:49;;;;;;;15.23;8.65;;;19.90;99.90;;;;;;4871138;29;20079;-80
2023/09/18 03:31:16;;;;;;;12.35;8.88;;;19.80;99.90;;;;;;4852695;29;20061;-79
2023/09/18 03:33:44;;;;;;;13.68;9.50;;;19.90;99.90;;;;;;4855264;29;20448;-80
2023/09/18 03:36:11;;;;;;;13.25;8.88;;;19.80;99.90;;;;;;4869677;29;20049;-79
2023/09/18 03:38:38;;;;;;;12.48;8.70;;;19.60;99.90;;;;;;4855894;29;20029;-80
2023/09/18 03:41:06;;;;;;;13.35;9.07;;;19.70;99.90;;;;;;4853162;29;20041;-79
2023/09/18 03:43:33;;;;;;;14.30;8.57;;;19.70;99.90;;;;;;4871860;29;20097;-79
2023/09/18 03:46:07;;;;;;;12.20;8.93;;;19.60;99.90;;;;;;4854643;29;20049;-80
2023/09/18 03:48:37;;;;;;;14.15;8.65;;;19.70;99.90;;;;;;4853932;29;20042;-81
2023/09/18 03:51:05;;;;;;;14.18;8.13;;;19.90;99.90;;;;;;4872111;29;20393;-80
2023/09/18 03:53:33;;;;;;;14.73;9.00;;;19.80;99.90;;;;;;4863851;29;20116;-81
2023/09/18 03:56:01;;;;;;;12.77;8.55;;;19.80;99.90;;;;;;4852655;29;20088;-78
2023/09/18 03:58:28;;;;;;;13.20;8.50;;;19.70;99.90;;;;;;4857742;29;20046;-82
2023/09/18 04:00:56;;;;;;;14.48;9.73;;;19.50;99.90;;;;;;4872136;29;20041;-83
2023/09/18 04:03:23;;;;;;;16.23;10.13;;;19.50;99.90;;;;;;4855550;29;20439;-83
2023/09/18 04:05:50;;;;;;;15.23;9.50;;;19.40;99.90;;;;;;4857183;29;20065;-79
2023/09/18 04:08:18;;;;;;;15.25;9.70;;;19.40;99.90;;;;;;4872436;29;20045;-82
2023/09/18 04:10:45;;;;;;;12.95;8.82;;;19.50;99.90;;;;;;4857980;29;20065;-84
2023/09/18 04:13:12;;;;;;;15.38;9.65;;;19.50;99.90;;;;;;4868063;29;20216;-81
2023/09/18 04:15:39;;;;;;;15.43;9.23;;;19.40;99.90;;;;;;4871498;29;20116;-83
2023/09/18 04:18:07;;;;;;;13.85;9.02;;;19.50;99.90;;;;;;4856692;29;20505;-83
2023/09/18 04:20:35;;;;;;;17.08;9.75;;;19.60;99.90;;;;;;4841684;29;20461;-82
2023/09/18 04:23:21;;;;;;;15.43;9.48;;;19.70;99.90;;;;;;4857126;29;20037;-83
2023/09/18 04:25:50;;;;;;;14.13;8.85;;;19.70;99.90;;;;;;4868983;29;20048;-82
2023/09/18 04:28:21;;;;;;;12.73;8.57;;;19.60;99.90;;;;;;4857823;29;20105;-82
2023/09/18 04:30:48;;;;;;;;;;;19.60;99.90;;;;;;4867746;29;20537;-80
2023/09/18 04:33:16;;;;;;;12.75;9.13;;;19.70;99.90;;;;;;4860006;29;19924;-80
2023/09/18 04:35:44;;;;;;;14.48;9.40;;;19.60;99.90;;;;;;4859666;29;20046;-84
2023/09/18 04:38:12;;;;;;;14.35;9.65;;;19.70;99.90;;;;;;4871792;29;20065;-82
2023/09/18 04:40:39;;;;;;;14.40;9.80;;;19.80;99.90;;;;;;4857746;29;20094;-83
2023/09/18 04:43:08;;;;;;;12.80;9.00;;;19.50;99.90;;;;;;4850964;29;21327;-80
2023/09/18 04:45:36;;;;;;;14.55;9.43;;;19.40;99.90;;;;;;4855610;29;20037;-81
2023/09/18 04:48:05;;;;;;;15.32;8.38;;;19.60;99.90;;;;;;4873011;29;20470;-79
2023/09/18 04:50:33;;;;;;;18.35;10.10;;;19.70;99.90;;;;;;4860506;29;20509;-80
2023/09/18 04:53:01;;;;;;;15.13;10.38;;;19.60;99.90;;;;;;4874816;29;20049;-79
2023/09/18 04:55:28;;;;;;;17.55;11.75;;;19.60;99.90;;;;;;4857705;29;20038;-81
2023/09/18 04:57:58;;;;;;;17.17;10.43;;;19.60;99.90;;;;;;4860769;29;20483;-82
2023/09/18 05:00:26;;;;;;;17.38;10.00;;;19.60;99.90;;;;;;4861032;29;20038;-80
2023/09/18 05:02:53;;;;;;;18.27;9.38;;;19.80;99.90;;;;;;4857105;29;20472;-81
2023/09/18 05:05:21;;;;;;;62.92;43.88;;;19.90;99.90;;;;;;4872175;29;20072;-80
2023/09/18 05:07:48;;;;;;;44.10;28.42;;;19.90;99.90;;;;;;4864999;29;20033;-81
2023/09/18 05:10:15;;;;;;;75.57;47.95;;;19.80;99.90;;;;;;4851811;29;20231;-80
2023/09/18 05:12:42;;;;;;;228.13;138.73;;;19.90;99.90;;;;;;4855865;29;20036;-79
2023/09/18 05:15:12;;;;;;;128.32;85.20;;;19.90;99.90;;;;;;4869074;29;20136;-75
2023/09/18 05:17:42;;;;;;;33.27;23.13;;;19.80;99.90;;;;;;4856505;29;20129;-77
2023/09/18 05:20:15;;;;;;;22.92;15.40;;;19.80;99.90;;;;;;4855924;29;20128;-79
2023/09/18 05:22:43;;;;;;;23.20;15.98;;;19.90;99.90;;;;;;4855407;29;20069;-79
2023/09/18 05:25:11;;;;;;;25.52;16.77;;;19.90;99.90;;;;;;4855825;29;20411;-80
2023/09/18 05:27:43;;;;;;;25.70;15.48;;;20.00;99.90;;;;;;4868019;29;20053;-82
2023/09/18 05:30:16;;;;;;;24.48;13.93;;;20.00;99.90;;;;;;4867310;29;20037;-81
2023/09/18 05:32:45;;;;;;;18.33;12.52;;;20.10;99.90;;;;;;4868072;29;20050;-79
2023/09/18 05:35:13;;;;;;;20.50;13.07;;;20.00;99.90;;;;;;4849991;29;20037;-78
2023/09/18 05:37:41;;;;;;;17.73;11.55;;;20.20;99.90;;;;;;4851931;29;20053;-79
2023/09/18 05:40:11;;;;;;;17.98;11.63;;;20.20;99.90;;;;;;4851819;29;20041;-80
2023/09/18 05:42:42;;;;;;;16.58;11.55;;;20.10;99.90;;;;;;4850834;29;20045;-78
2023/09/18 05:45:13;;;;;;;22.30;10.52;;;20.10;99.90;;;;;;4855101;29;20046;-79
2023/09/18 05:47:42;;;;;;;16.80;11.48;;;20.10;99.90;;;;;;4870983;29;20154;-81
2023/09/18 05:50:16;;;;;;;18.40;11.63;;;20.00;99.90;;;;;;4870852;29;20054;-77
2023/09/18 05:52:44;;;;;;;19.02;11.07;;;20.10;99.90;;;;;;4862375;29;20494;-79
2023/09/18 05:55:12;;;;;;;17.20;11.07;;;20.30;99.90;;;;;;4859958;29;20040;-77
2023/09/18 05:57:39;;;;;;;17.35;11.35;;;20.20;99.90;;;;;;4873232;29;20498;-76
2023/09/18 06:00:07;;;;;;;19.08;11.40;;;20.30;99.90;;;;;;4873313;29;20379;-80
2023/09/18 06:02:34;;;;;;;17.67;10.85;;;20.50;99.90;;;;;;4860066;29;20053;-83
2023/09/18 06:05:02;;;;;;;97.47;61.58;;;20.50;99.90;;;;;;4867228;29;20505;-77
2023/09/18 06:07:30;;;;;;;62.35;40.05;;;20.50;99.90;;;;;;4859856;29;20049;-80
2023/09/18 06:09:58;;;;;;;57.13;37.50;;;20.50;99.90;;;;;;4860346;29;20492;-77
2023/09/18 06:12:25;;;;;;;45.22;28.30;;;20.50;99.90;;;;;;4860291;29;20038;-74
2023/09/18 06:14:53;;;;;;;95.03;59.00;;;20.70;99.90;;;;;;4857910;29;20136;-80
2023/09/18 06:17:20;;;;;;;24.88;17.45;;;21.00;99.90;;;;;;4858040;29;20056;-79
2023/09/18 06:19:48;;;;;;;20.23;15.70;;;20.80;99.90;;;;;;4856550;29;20045;-77
2023/09/18 06:22:15;;;;;;;18.02;12.63;;;20.70;99.90;;;;;;4858839;29;20048;-77
2023/09/18 06:24:42;;;;;;;23.35;15.85;;;20.80;99.90;;;;;;4860491;29;20120;-79
2023/09/18 06:27:11;;;;;;;23.33;16.13;;;20.90;99.90;;;;;;4858347;29;20486;-77
2023/09/18 06:29:39;;;;;;;21.60;13.77;;;21.00;99.90;;;;;;4873309;29;20040;-78
2023/09/18 06:32:06;;;;;;;18.60;12.32;;;21.00;99.90;;;;;;4869320;29;20048;-76
2023/09/18 06:34:34;;;;;;;18.98;12.65;;;20.70;99.90;;;;;;4854482;29;20097;-77
2023/09/18 06:37:03;;;;;;;23.25;12.02;;;20.80;99.90;;;;;;4855764;29;20516;-80
2023/09/18 06:39:30;;;;;;;20.30;12.15;;;20.90;99.90;;;;;;4855397;29;20291;-78
2023/09/18 06:41:57;;;;;;;18.13;11.80;;;20.90;99.90;;;;;;4853797;29;20494;-77
2023/09/18 06:44:24;;;;;;;17.70;11.77;;;20.80;99.90;;;;;;4856509;29;20033;-77
2023/09/18 06:46:53;;;;;;;17.05;11.82;;;20.80;99.90;;;;;;4857851;29;20121;-77
2023/09/18 06:49:20;;;;;;;16.83;11.93;;;20.90;99.90;;;;;;4872488;29;20159;-79
2023/09/18 06:51:47;;;;;;;15.70;11.45;;;21.00;99.90;;;;;;4857901;29;20037;-77
2023/09/18 06:54:15;;;;;;;15.90;11.15;;;21.20;99.90;;;;;;4855328;29;20425;-78
2023/09/18 06:56:44;;;;;;;16.88;10.52;;;21.20;99.90;;;;;;4875613;29;20048;-80
2023/09/18 06:59:11;;;;;;;14.18;10.45;;;21.10;99.90;;;;;;4873650;29;20422;-78
2023/09/18 07:01:41;;;;;;;17.45;9.90;;;21.20;99.90;;;;;;4858147;29;20419;-78
2023/09/18 07:04:09;;;;;;;15.47;10.20;;;21.30;99.90;;;;;;4873483;29;20078;-77
2023/09/18 07:06:37;;;;;;;14.93;9.73;;;21.50;99.90;;;;;;4856615;29;20340;-79
2023/09/18 07:09:06;;;;;;;16.45;9.57;;;21.60;99.90;;;;;;4856403;29;20041;-77
2023/09/18 07:11:34;;;;;;;14.60;9.82;;;21.70;99.90;;;;;;4856608;29;20042;-75
2023/09/18 07:14:06;;;;;;;14.38;9.48;;;21.80;99.90;;;;;;4870940;29;20045;-78
2023/09/18 07:16:34;;;;;;;16.77;10.07;;;21.90;99.90;;;;;;4854643;29;20057;-76
2023/09/18 07:19:04;;;;;;;15.75;10.18;;;22.00;99.90;;;;;;4872033;29;20474;-78
2023/09/18 07:21:32;;;;;;;14.02;9.73;;;22.10;99.90;;;;;;4855582;29;20046;-78
2023/09/18 07:23:59;;;;;;;16.75;10.45;;;22.20;99.90;;;;;;4859395;29;20072;-78
2023/09/18 07:26:26;;;;;;;16.55;9.60;;;22.20;99.90;;;;;;4857202;29;20381;-78
2023/09/18 07:28:54;;;;;;;15.25;10.13;;;22.00;99.90;;;;;;4874653;29;20397;-78
2023/09/18 07:31:21;;;;;;;14.90;9.52;;;22.10;99.90;;;;;;4857529;29;20060;-78
2023/09/18 07:33:49;;;;;;;16.52;9.63;;;22.20;99.90;;;;;;4856951;29;20041;-79
2023/09/18 07:36:16;;;;;;;15.07;9.38;;;22.40;99.90;;;;;;4857863;29;20044;-77
2023/09/18 07:38:43;;;;;;;14.88;10.23;;;22.40;99.90;;;;;;4859000;29;20041;-79
2023/09/18 07:41:11;;;;;;;16.10;11.63;;;22.20;99.90;;;;;;4854655;29;20470;-77
2023/09/18 07:43:39;;;;;;;16.25;9.43;;;22.50;99.90;;;;;;4873272;29;20053;-80
2023/09/18 07:46:07;;;;;;;14.80;9.38;;;22.50;99.90;;;;;;4865933;29;20266;-81
2023/09/18 07:48:35;;;;;;;13.52;9.30;;;22.60;99.90;;;;;;4869616;29;20127;-80
2023/09/18 07:51:02;;;;;;;16.17;9.25;;;22.50;99.90;;;;;;4855537;29;20038;-80
2023/09/18 07:53:29;;;;;;;13.68;9.20;;;22.70;99.90;;;;;;4858105;29;20049;-78
2023/09/18 07:55:58;;;;;;;17.40;10.18;;;22.90;99.90;;;;;;4854324;29;20066;-78
2023/09/18 07:58:27;;;;;;;15.13;9.40;;;22.90;99.90;;;;;;4869936;29;20454;-77
2023/09/18 08:00:58;;;;;;;17.10;12.18;;;22.90;99.90;;;;;;4856896;29;20102;-77
2023/09/18 08:03:26;;;;;;;15.50;11.07;;;23.00;99.90;;;;;;4856194;29;20097;-79
2023/09/18 08:05:54;;;;;;;18.40;10.73;;;23.10;99.90;;;;;;4871857;29;20049;-78
2023/09/18 08:08:24;;;;;;;19.15;8.95;;;23.20;99.90;;;;;;4874216;29;20049;-78
2023/09/18 08:10:52;;;;;;;13.27;8.82;;;23.10;99.90;;;;;;4867858;29;20037;-79
2023/09/18 08:13:20;;;;;;;12.88;9.52;;;23.40;99.90;;;;;;4854768;29;20406;-79
2023/09/18 08:15:47;;;;;;;13.73;9.25;;;23.40;99.90;;;;;;4859974;29;20048;-79
2023/09/18 08:18:14;;;;;;;16.58;9.48;;;23.50;99.90;;;;;;4872079;29;20536;-76
2023/09/18 08:20:45;;;;;;;17.27;9.40;;;23.60;99.90;;;;;;4861001;29;20041;-79
2023/09/18 08:23:12;;;;;;;13.63;9.52;;;23.70;99.90;;;;;;4854792;29;20044;-77
2023/09/18 08:25:42;;;;;;;12.90;9.20;;;23.90;99.90;;;;;;4854413;29;20038;-78
2023/09/18 08:28:09;;;;;;;14.85;8.57;;;24.10;99.90;;;;;;4868512;29;20060;-78
2023/09/18 08:30:40;;;;;;;14.75;9.85;;;24.20;99.90;;;;;;4854780;29;20037;-77
2023/09/18 08:33:07;;;;;;;;;;;24.10;99.90;;;;;;4854986;29;20068;-78
2023/09/18 08:35:34;;;;;;;14.32;9.82;;;24.00;99.90;;;;;;4856693;29;20380;-78
2023/09/18 08:38:02;;;;;;;16.10;9.30;;;24.10;99.90;;;;;;4858039;29;20033;-79
2023/09/18 08:40:30;;;;;;;15.23;10.07;;;24.50;99.90;;;;;;4854524;29;20045;-80
2023/09/18 08:43:03;;;;;;;13.70;9.88;;;24.30;99.90;;;;;;4870527;29;20042;-79
2023/09/18 08:45:51;;;;;;;14.20;9.48;;;24.50;99.90;;;;;;4858830;29;20120;-77
2023/09/18 08:48:19;;;;;;;16.15;9.75;;;24.70;99.90;;;;;;4856892;29;20377;-78
2023/09/18 08:50:48;;;;;;;13.25;9.77;;;24.60;99.90;;;;;;4852706;29;20121;-78
2023/09/18 08:53:15;;;;;;;13.88;9.63;;;24.70;99.90;;;;;;4856583;29;20037;-78
2023/09/18 08:55:42;;;;;;;14.05;10.63;;;24.80;99.90;;;;;;4855583;29;20550;-77
2023/09/18 08:58:10;;;;;;;19.52;12.80;;;25.00;99.90;;;;;;4869365;29;20466;-80
2023/09/18 09:00:38;;;;;;;18.80;12.32;;;25.20;99.90;;;;;;4853852;29;20458;-79
2023/09/18 09:03:05;;;;;;;15.43;11.25;;;25.40;99.90;;;;;;4858790;29;20105;-79
2023/09/18 09:05:33;;;;;;;16.75;10.70;;;25.30;99.90;;;;;;4864840;29;20042;-77
2023/09/18 09:08:01;;;;;;;14.48;9.40;;;25.30;99.90;;;;;;4858034;29;20133;-80
2023/09/18 09:10:29;;;;;;;14.60;9.48;;;25.60;99.80;;;;;;4860236;29;20438;-78
2023/09/18 09:12:59;;;;;;;15.52;9.65;;;25.70;99.50;;;;;;4854680;29;20064;-78
2023/09/18 09:15:46;;;;;;;16.77;10.02;;;25.80;99.30;;;;;;4856490;29;20362;-79
2023/09/18 09:18:15;;;;;;;16.50;10.57;;;25.90;99.20;;;;;;4872820;29;20054;-81
2023/09/18 09:20:58;;;;;;;15.45;9.38;;;26.10;98.70;;;;;;4872731;29;20400;-79
2023/09/18 09:23:30;;;;;;;15.73;9.30;;;25.90;98.50;;;;;;4858581;29;20041;-78
2023/09/18 09:26:13;;;;;;;16.52;9.88;;;26.00;98.50;;;;;;4858041;29;20144;-79
2023/09/18 09:28:43;;;;;;;12.50;9.07;;;26.30;98.00;;;;;;4859924;29;20041;-80
2023/09/18 09:31:10;;;;;;;13.20;9.93;;;26.50;97.30;;;;;;4856594;29;20041;-77
2023/09/18 09:33:40;;;;;;;13.80;9.25;;;26.00;97.10;;;;;;4874015;29;20132;-78
2023/09/18 09:36:08;;;;;;;14.00;9.40;;;26.00;97.20;;;;;;4856758;29;20050;-78
2023/09/18 09:38:36;;;;;;;12.52;9.48;;;26.10;97.50;;;;;;4863130;29;20487;-79
2023/09/18 09:41:06;;;;;;;15.73;9.80;;;26.30;97.40;;;;;;4861199;29;20060;-79
2023/09/18 09:43:34;;;;;;;13.15;9.38;;;26.40;97.20;;;;;;4858087;29;20046;-79
2023/09/18 09:46:02;;;;;;;13.77;10.18;;;26.70;96.60;;;;;;4876964;29;20160;-79
2023/09/18 09:48:32;;;;;;;13.00;9.07;;;26.60;96.40;;;;;;4870561;29;20109;-82
2023/09/18 09:51:01;;;;;;;16.75;9.80;;;26.80;96.00;;;;;;4875257;29;20085;-76
2023/09/18 09:53:46;;;;;;;17.27;9.63;;;26.90;95.80;;;;;;4863931;29;20450;-78
2023/09/18 09:56:21;;;;;;;13.88;9.82;;;26.80;96.10;;;;;;4871937;29;20128;-77
2023/09/18 09:59:04;;;;;;;13.77;9.38;;;27.10;95.80;;;;;;4872629;29;20045;-79
2023/09/18 10:01:31;;;;;;;12.75;9.65;;;27.30;95.10;;;;;;4841756;29;20053;-78
2023/09/18 10:04:00;;;;;;;12.10;9.05;;;27.00;94.50;;;;;;4859137;29;20051;-77
2023/09/18 10:06:30;;;;;;;12.23;9.35;;;27.10;94.30;;;;;;4857739;29;20378;-79
2023/09/18 10:08:58;;;;;;;12.02;8.65;;;27.00;93.60;;;;;;4858409;29;20511;-76
2023/09/18 10:11:27;;;;;;;12.40;8.80;;;27.20;93.30;;;;;;4860174;29;20386;-80
2023/09/18 10:14:00;;;;;;;16.85;9.75;;;27.60;93.20;;;;;;4870352;29;20041;-78
2023/09/18 10:16:31;;;;;;;14.45;9.13;;;27.60;93.20;;;;;;4858876;29;20553;-77
2023/09/18 10:19:18;;;;;;;11.35;9.20;;;27.60;93.30;;;;;;4872494;29;20045;-79
2023/09/18 10:21:54;;;;;;;14.15;9.30;;;27.50;93.40;;;;;;4871470;29;20046;-76
2023/09/18 10:24:24;;;;;;;12.88;9.25;;;27.70;93.10;;;;;;4858384;29;20041;-81
2023/09/18 10:26:58;;;;;;;14.02;9.98;;;28.10;92.80;;;;;;4882256;29;20498;-77
2023/09/18 10:29:25;;;;;;;12.57;8.30;;;28.30;92.40;;;;;;4873645;29;20541;-80
2023/09/18 10:31:54;;;;;;;15.38;8.73;;;28.00;91.30;;;;;;4858691;29;20045;-78
2023/09/18 10:34:23;;;;;;;13.07;9.93;;;27.80;91.40;;;;;;4861025;29;20042;-82
2023/09/18 10:36:53;;;;;;;12.98;9.02;;;27.90;91.30;;;;;;4864867;29;20418;-83
2023/09/18 10:39:26;;;;;;;11.35;8.38;;;27.90;91.20;;;;;;4860787;29;20473;-79
2023/09/18 10:41:55;;;;;;;11.63;9.13;;;27.90;91.20;;;;;;4860367;29;20381;-79
2023/09/18 10:44:23;;;;;;;14.68;10.95;;;28.20;90.70;;;;;;4857743;29;20045;-80
2023/09/18 10:46:52;;;;;;;13.07;9.88;;;28.20;90.20;;;;;;4875233;29;20414;-79
2023/09/18 10:49:20;;;;;;;14.15;8.85;;;28.30;90.20;;;;;;4875084;29;20054;-80
2023/09/18 10:51:48;;;;;;;14.07;8.50;;;28.50;89.50;;;;;;4874168;29;20515;-82
2023/09/18 10:54:23;;;;;;;12.77;7.97;;;28.50;89.20;;;;;;4859663;29;20033;-79
2023/09/18 10:56:51;;;;;;;10.98;8.45;;;28.40;88.10;;;;;;4860411;29;20033;-77
2023/09/18 10:59:20;;;;;;;11.52;7.22;;;28.50;87.70;;;;;;4858230;29;20453;-79
2023/09/18 11:01:50;;;;;;;12.43;7.60;;;28.70;87.20;;;;;;4857628;29;20046;-77
2023/09/18 11:04:19;;;;;;;9.23;7.05;;;28.90;85.20;;;;;;4862376;29;20049;-82
2023/09/18 11:06:56;;;;;;;10.40;7.63;;;28.90;85.50;;;;;;4873117;29;20052;-81
2023/09/18 11:09:24;;;;;;;12.10;8.13;;;29.00;85.60;;;;;;4875614;29;20041;-75
2023/09/18 11:12:03;;;;;;;11.38;8.10;;;29.10;85.00;;;;;;4861168;29;20037;-76
2023/09/18 11:14:48;;;;;;;10.40;7.85;;;29.10;85.10;;;;;;4859093;29;20128;-78
2023/09/18 11:17:36;;;;;;;12.10;6.85;;;29.20;84.50;;;;;;4870755;29;20109;-75
2023/09/18 11:20:17;;;;;;;10.88;8.02;;;29.10;83.90;;;;;;4871734;29;20041;-78
2023/09/18 11:22:48;;;;;;;12.90;7.32;;;29.20;83.50;;;;;;4859840;29;20037;-83
2023/09/18 11:25:34;;;;;;;9.52;6.80;;;29.40;83.30;;;;;;4874109;29;20053;-76
2023/09/18 11:28:03;;;;;;;10.00;7.25;;;29.50;82.40;;;;;;4858526;29;20073;-78
2023/09/18 11:30:32;;;;;;;7.95;5.88;;;29.50;82.70;;;;;;4865656;29;20063;-78
2023/09/18 11:33:05;;;;;;;8.95;6.78;;;29.50;81.00;;;;;;4878919;29;20049;-79
2023/09/18 11:35:33;;;;;;;9.98;6.57;;;29.60;81.00;;;;;;4870127;29;20042;-82
2023/09/18 11:38:09;;;;;;;9.45;6.60;;;30.40;79.10;;;;;;4860311;29;20367;-78
2023/09/18 11:40:38;;;;;;;11.07;7.50;;;30.40;77.80;;;;;;4870821;29;20045;-78
2023/09/18 11:43:41;;;;;;;10.05;6.20;;;30.30;78.40;;;;;;4855948;29;20041;-78
2023/09/18 11:46:09;;;;;;;9.15;6.65;;;30.10;77.60;;;;;;4860874;29;20421;-81
2023/09/18 11:48:41;;;;;;;10.45;6.50;;;30.40;77.50;;;;;;4866801;29;20053;-93
2023/09/18 11:51:11;;;;;;;10.50;6.95;;;30.30;77.10;;;;;;4876177;29;20041;-78
2023/09/18 11:53:41;;;;;;;9.30;5.68;;;30.20;77.50;;;;;;4863888;29;20057;-79
2023/09/18 11:56:17;;;;;;;7.57;5.45;;;30.50;75.20;;;;;;4867703;29;20470;-78
2023/09/18 11:58:49;;;;;;;10.70;6.05;;;30.70;75.70;;;;;;4863869;29;20050;-82
2023/09/18 12:01:18;;;;;;;10.27;6.07;;;30.80;75.00;;;;;;4876619;29;20055;-77
2023/09/18 12:03:47;;;;;;;10.05;6.28;;;30.50;74.00;;;;;;4863583;29;20048;-78
2023/09/18 12:06:16;;;;;;;9.30;5.78;;;30.50;75.00;;;;;;4856817;29;20041;-75
2023/09/18 12:08:43;;;;;;;9.63;7.05;;;30.50;73.50;;;;;;4858293;29;20379;-77
2023/09/18 12:11:16;;;;;;;10.40;7.68;;;30.70;72.90;;;;;;4859110;29;20034;-77
2023/09/18 12:13:50;;;;;;;17.25;8.43;;;30.50;73.10;;;;;;4858514;29;20057;-76
2023/09/18 12:16:18;;;;;;;12.55;5.68;;;30.80;73.60;;;;;;4857412;29;20394;-78
2023/09/18 12:18:49;;;;;;;8.02;5.32;;;31.10;71.60;;;;;;4857935;29;20042;-80
2023/09/18 12:21:17;;;;;;;8.02;4.88;;;31.30;69.30;;;;;;4872034;29;20034;-77
2023/09/18 12:23:46;;;;;;;7.50;5.10;;;31.30;68.20;;;;;;4856949;29;20042;-81
2023/09/18 12:26:14;;;;;;;7.07;4.55;;;31.20;69.70;;;;;;4872934;29;20094;-77
2023/09/18 12:28:43;;;;;;;6.78;4.60;;;31.40;67.70;;;;;;4871633;29;20342;-78
2023/09/18 12:31:12;;;;;;;7.80;4.55;;;31.60;66.50;;;;;;4866331;29;20409;-79
2023/09/18 12:33:40;;;;;;;7.90;4.72;;;31.50;66.30;;;;;;4859346;29;20068;-77
2023/09/18 12:36:08;;;;;;;8.18;5.20;;;31.70;66.80;;;;;;4856369;29;20058;-77
2023/09/18 12:38:37;;;;;;;9.85;5.50;;;32.00;66.60;;;;;;4865383;29;20393;-79
2023/09/18 12:41:09;;;;;;;7.68;5.18;;;32.10;66.40;;;;;;4857478;29;20067;-78
2023/09/18 12:43:43;;;;;;;7.65;5.32;;;32.10;64.60;;;;;;4858672;29;20363;-83
2023/09/18 12:46:11;;;;;;;11.05;5.47;;;32.50;65.50;;;;;;4857149;29;20067;-77